Time;durP1;ratioP1;P1;durP2;ratioP2;P2;SDS_P1;SDS_P2;PMS_P1;PMS_P2;Temp;Humidity;BMP_temperature;BMP_pressure;BME280_temperature;BME280_humidity;BME280_pressure;Samples;Min_cycle;Max_cycle;Signal;HPM_P1;HPM_P2
2022/04/19 00:02:18;;;;;;;12.53;6.13;;;;;;;8.21;49.04;100351.48;1752468;81;21077;-77
2022/04/19 00:04:44;;;;;;;9.23;6.30;;;;;;;8.17;49.22;100345.92;1756194;81;21117;-77
2022/04/19 00:07:11;;;;;;;11.87;7.10;;;;;;;8.12;48.77;100343.45;1708700;83;21025;-77
2022/04/19 00:09:38;;;;;;;11.83;6.80;;;;;;;8.11;48.46;100343.03;1667848;82;21468;-77
2022/04/19 00:12:07;;;;;;;10.93;6.80;;;;;;;8.10;48.62;100343.94;1733237;81;20977;-77
2022/04/19 00:14:34;;;;;;;12.40;7.93;;;;;;;8.05;48.76;100340.14;1714435;82;21522;-79
2022/04/19 00:17:01;;;;;;;14.53;8.50;;;;;;;8.01;48.92;100345.05;1690439;84;21961;-77
2022/04/19 00:19:28;;;;;;;11.37;7.60;;;;;;;8.00;48.90;100341.17;1685121;85;21064;-77
2022/04/19 00:21:55;;;;;;;11.27;6.53;;;;;;;8.01;48.75;100338.98;1685256;83;21103;-77
2022/04/19 00:24:22;;;;;;;10.33;6.70;;;;;;;8.04;48.46;100334.98;1685517;83;21022;-77
2022/04/19 00:26:49;;;;;;;11.97;6.97;;;;;;;8.08;48.42;100339.66;1685209;85;21110;-77
2022/04/19 00:29:17;;;;;;;11.03;6.67;;;;;;;8.11;48.36;100334.35;1685501;83;21154;-77
2022/04/19 00:31:44;;;;;;;11.30;6.17;;;;;;;8.12;48.22;100330.83;1685027;83;21507;-77
2022/04/19 00:34:11;;;;;;;10.50;5.90;;;;;;;8.14;48.09;100329.89;1731823;82;20991;-77
2022/04/19 00:36:38;;;;;;;9.30;5.63;;;;;;;8.15;47.93;100332.08;1748389;81;21117;-77
2022/04/19 00:39:05;;;;;;;10.53;6.30;;;;;;;8.14;47.76;100331.20;1751110;80;21104;-78
2022/04/19 00:41:32;;;;;;;10.60;5.73;;;;;;;8.12;47.77;100319.08;1756466;80;22007;-77
2022/04/19 00:43:59;;;;;;;9.60;5.80;;;;;;;8.11;47.64;100326.06;1751347;81;21038;-78
2022/04/19 00:46:26;;;;;;;10.27;6.00;;;;;;;8.08;47.56;100315.71;1747333;81;21570;-77
2022/04/19 00:48:53;;;;;;;10.40;6.20;;;;;;;8.08;47.51;100314.86;1749053;80;21550;-78
2022/04/19 00:51:21;;;;;;;12.87;6.00;;;;;;;8.07;47.54;100319.69;1705624;82;21021;-77
2022/04/19 00:53:50;;;;;;;10.07;6.03;;;;;;;8.04;47.44;100312.34;1680786;85;21011;-77
2022/04/19 00:56:18;;;;;;;8.10;5.30;;;;;;;8.03;47.24;100309.76;1685726;85;25946;-79
2022/04/19 00:58:46;;;;;;;11.23;5.63;;;;;;;7.99;47.29;100303.78;1685659;85;21073;-77
2022/04/19 01:01:14;;;;;;;11.03;5.70;;;;;;;7.97;47.18;100308.17;1685436;85;21670;-77
2022/04/19 01:03:42;;;;;;;11.23;5.63;;;;;;;7.97;47.27;100300.34;1667914;83;21206;-77
2022/04/19 01:06:11;;;;;;;9.58;5.33;;;;;;;7.97;47.18;100296.89;1686329;84;21536;-77
2022/04/19 01:08:39;;;;;;;10.10;5.57;;;;;;;7.97;47.15;100296.89;1685606;85;21003;-77
2022/04/19 01:13:54;;;;;;;9.27;5.57;;;;;;;7.93;47.05;100294.82;1685035;85;21038;-79
2022/04/19 01:16:21;;;;;;;9.17;5.60;;;;;;;7.90;47.08;100296.64;1685604;85;21070;-77
2022/04/19 01:18:49;;;;;;;8.77;5.13;;;;;;;7.86;47.12;100297.18;1685348;85;22011;-77
2022/04/19 01:21:16;;;;;;;9.37;5.07;;;;;;;7.86;47.11;100300.25;1685405;85;21503;-77
2022/04/19 01:23:43;;;;;;;7.67;4.60;;;;;;;7.82;47.08;100304.24;1683758;85;21050;-77
2022/04/19 01:26:11;;;;;;;8.33;5.13;;;;;;;7.78;46.91;100296.53;1685412;85;21011;-77
2022/04/19 01:28:39;;;;;;;7.40;4.60;;;;;;;7.75;46.96;100299.23;1685862;85;21035;-77
2022/04/19 01:31:07;;;;;;;9.53;4.90;;;;;;;7.74;47.03;100300.14;1685270;85;21168;-77
2022/04/19 01:33:38;;;;;;;10.13;4.60;;;;;;;7.71;47.20;100290.64;1689353;83;21454;-77
2022/04/19 01:36:09;;;;;;;7.30;4.53;;;;;;;7.70;46.93;100290.20;1685423;85;21059;-77
2022/04/19 01:38:38;;;;;;;7.67;4.70;;;;;;;7.68;46.87;100285.96;1681056;84;21018;-79
2022/04/19 01:41:05;;;;;;;8.47;4.30;;;;;;;7.67;46.76;100293.36;1683257;85;21071;-78
2022/04/19 01:43:41;;;;;;;7.27;4.70;;;;;;;7.64;46.66;100289.53;1673985;84;21307;-77
2022/04/19 01:46:09;;;;;;;7.33;4.20;;;;;;;7.62;46.82;100290.01;1685249;84;21067;-79
2022/04/19 01:48:37;;;;;;;10.37;4.70;;;;;;;7.58;47.16;100284.87;1685362;85;21020;-77
2022/04/19 01:51:04;;;;;;;9.00;5.07;;;;;;;7.59;47.31;100286.61;1685561;83;21025;-77
2022/04/19 01:53:32;;;;;;;6.70;4.37;;;;;;;7.57;47.46;100274.50;1683375;85;21047;-77
2022/04/19 01:55:59;;;;;;;7.97;4.63;;;;;;;7.56;47.40;100282.75;1685631;84;21085;-79
2022/04/19 01:58:38;;;;;;;7.50;4.60;;;;;;;7.52;47.24;100282.44;1669573;84;21578;-77
2022/04/19 02:01:06;;;;;;;7.70;4.47;;;;;;;7.50;47.40;100280.77;1685447;84;21004;-77
2022/04/19 02:03:34;;;;;;;10.20;5.10;;;;;;;7.51;47.54;100285.08;1709751;83;21047;-77
2022/04/19 02:06:08;;;;;;;6.87;4.10;;;;;;;7.51;47.58;100289.87;1702241;83;21497;-77
2022/04/19 02:08:36;;;;;;;8.17;4.13;;;;;;;7.46;47.05;100279.15;1683159;83;21247;-77
2022/04/19 02:11:04;;;;;;;6.83;4.33;;;;;;;7.43;47.25;100279.20;1698924;83;21196;-78
2022/04/19 02:13:32;;;;;;;6.63;4.17;;;;;;;7.40;47.05;100272.34;1713626;83;21051;-76
2022/04/19 02:16:04;;;;;;;8.33;4.60;;;;;;;7.39;46.86;100271.91;1693008;83;21043;-76
2022/04/19 02:18:32;;;;;;;8.27;4.10;;;;;;;7.36;46.90;100271.55;1700594;83;21111;-77
2022/04/19 02:21:00;;;;;;;7.23;4.00;;;;;;;7.33;46.81;100278.14;1698133;83;21127;-76
2022/04/19 02:23:28;;;;;;;7.27;4.20;;;;;;;7.31;46.83;100274.71;1694882;83;21118;-77
2022/04/19 02:25:55;;;;;;;6.20;3.57;;;;;;;7.30;46.94;100284.74;1702233;83;21072;-78
2022/04/19 02:28:23;;;;;;;7.17;4.03;;;;;;;7.30;46.93;100274.31;1705970;83;21048;-77
2022/04/19 02:30:55;;;;;;;7.23;4.07;;;;;;;7.28;46.75;100277.41;1702460;83;21099;-77
2022/04/19 02:33:24;;;;;;;8.53;4.37;;;;;;;7.27;46.83;100281.37;1697277;83;21102;-77
2022/04/19 02:35:55;;;;;;;9.50;4.50;;;;;;;7.23;46.80;100277.11;1748933;81;21075;-79
2022/04/19 02:38:22;;;;;;;8.80;4.80;;;;;;;7.22;46.81;100279.32;1743632;82;20992;-76
2022/04/19 02:40:50;;;;;;;8.97;4.53;;;;;;;7.22;46.82;100276.71;1734760;82;21060;-76
2022/04/19 02:43:17;;;;;;;10.27;4.47;;;;;;;7.22;46.89;100264.53;1725766;82;21080;-77
2022/04/19 02:45:46;;;;;;;9.17;4.60;;;;;;;7.21;46.91;100271.95;1727726;82;22297;-76
2022/04/19 02:48:18;;;;;;;9.90;4.93;;;;;;;7.20;47.09;100281.09;1726965;82;21001;-76
2022/04/19 02:50:46;;;;;;;;;;;;;;;7.18;47.02;100281.58;1736315;82;21099;-77
2022/04/19 02:53:13;;;;;;;7.27;4.50;;;;;;;7.17;47.25;100274.66;1739119;81;20143;-76
2022/04/19 02:55:41;;;;;;;6.87;3.60;;;;;;;7.14;47.39;100268.63;1725284;82;21077;-78
2022/04/19 02:58:08;;;;;;;6.97;3.77;;;;;;;7.13;47.08;100269.53;1738166;81;21118;-76
2022/04/19 03:00:38;;;;;;;7.70;3.87;;;;;;;7.13;47.01;100270.84;1741702;80;21598;-76
2022/04/19 03:03:05;;;;;;;7.00;3.83;;;;;;;7.10;46.89;100261.80;1724950;82;21028;-78
2022/04/19 03:05:33;;;;;;;6.27;3.37;;;;;;;7.08;46.81;100263.57;1732277;82;21060;-78
2022/04/19 03:08:00;;;;;;;6.67;3.90;;;;;;;7.08;46.83;100264.02;1727808;82;20992;-77
2022/04/19 03:10:27;;;;;;;7.30;3.70;;;;;;;7.08;46.77;100258.36;1734230;81;21096;-77
2022/04/19 03:12:55;;;;;;;6.27;3.23;;;;;;;7.06;46.92;100260.59;1731069;82;21083;-76
2022/04/19 03:15:24;;;;;;;5.70;3.67;;;;;;;7.03;47.01;100252.86;1738621;81;21075;-76
2022/04/19 03:17:51;;;;;;;7.07;3.73;;;;;;;7.01;47.15;100248.12;1742022;81;21025;-76
2022/04/19 03:20:20;;;;;;;5.53;2.90;;;;;;;6.99;47.07;100248.17;1746283;82;20989;-76
2022/04/19 03:28:20;;;;;;;7.03;3.77;;;;;;;6.92;46.68;100239.63;1730297;81;21047;-77
2022/04/19 03:30:48;;;;;;;6.13;3.63;;;;;;;6.89;46.65;100241.02;1746069;80;21048;-77
2022/04/19 03:33:19;;;;;;;5.47;3.50;;;;;;;6.87;46.84;100239.34;1731705;81;21108;-77
2022/04/19 03:35:45;;;;;;;5.60;3.35;;;;;;;6.84;47.13;100240.72;1732568;82;21135;-79
2022/04/19 03:38:13;;;;;;;6.60;3.27;;;;;;;6.80;47.26;100236.04;1740022;81;21044;-77
2022/04/19 03:40:40;;;;;;;5.37;3.30;;;;;;;6.77;47.36;100236.11;1720949;82;21551;-77
2022/04/19 03:43:08;;;;;;;6.70;3.10;;;;;;;6.75;47.45;100237.05;1740524;80;21111;-79
2022/04/19 03:45:35;;;;;;;5.70;3.27;;;;;;;6.73;47.40;100234.45;1745963;80;21012;-77
2022/04/19 03:48:05;;;;;;;5.87;3.27;;;;;;;6.67;47.39;100228.95;1727970;82;21275;-77
2022/04/19 03:50:33;;;;;;;7.57;3.50;;;;;;;6.62;47.39;100229.95;1737155;80;20989;-78
2022/04/19 03:53:00;;;;;;;6.83;3.10;;;;;;;6.57;47.38;100227.48;1727615;82;21005;-79
2022/04/19 03:55:28;;;;;;;4.80;2.87;;;;;;;6.55;47.33;100227.10;1731541;82;21141;-79
2022/04/19 03:57:55;;;;;;;5.03;2.93;;;;;;;6.50;47.46;100222.44;1721247;82;21043;-77
2022/04/19 04:00:22;;;;;;;5.30;3.13;;;;;;;6.45;47.67;100218.62;1744674;81;21200;-76
2022/04/19 04:02:50;;;;;;;7.17;2.50;;;;;;;6.42;47.70;100224.76;1738919;81;21165;-78
2022/04/19 04:05:24;;;;;;;6.73;3.10;;;;;;;6.40;47.86;100224.38;1741646;80;21076;-78
2022/04/19 04:07:51;;;;;;;5.33;2.93;;;;;;;6.38;47.97;100219.68;1746418;81;20984;-79
2022/04/19 04:10:20;;;;;;;7.35;3.70;;;;;;;6.34;47.97;100223.23;1730296;81;21071;-78
2022/04/19 04:12:47;;;;;;;5.10;3.17;;;;;;;6.31;47.76;100221.55;1735980;81;21105;-79
2022/04/19 04:15:15;;;;;;;5.20;3.10;;;;;;;6.29;47.73;100224.65;1731857;81;21081;-78
2022/04/19 04:17:43;;;;;;;6.23;3.07;;;;;;;6.28;47.78;100228.58;1730631;81;21039;-79
2022/04/19 04:20:11;;;;;;;6.67;3.47;;;;;;;6.27;47.71;100231.62;1727026;81;20988;-80
2022/04/19 04:22:38;;;;;;;6.73;3.17;;;;;;;6.25;47.61;100228.20;1729917;82;21111;-80
2022/04/19 04:25:06;;;;;;;4.63;2.67;;;;;;;6.25;47.57;100227.75;1704752;82;21601;-79
2022/04/19 04:27:33;;;;;;;6.83;3.10;;;;;;;6.24;47.56;100227.80;1724448;81;21059;-80
2022/04/19 04:30:01;;;;;;;6.33;2.93;;;;;;;6.24;47.58;100234.30;1713974;81;21060;-80
2022/04/19 04:32:29;;;;;;;7.97;4.10;;;;;;;6.23;47.53;100228.22;1707858;81;21092;-80
2022/04/19 04:34:58;;;;;;;4.77;3.20;;;;;;;6.24;47.62;100227.34;1723046;81;21065;-84
2022/04/19 04:37:26;;;;;;;5.47;3.50;;;;;;;6.27;47.57;100237.28;1733680;81;21214;-81
2022/04/19 04:39:55;;;;;;;6.00;3.70;;;;;;;6.29;47.57;100231.16;1742779;80;21083;-81
2022/04/19 04:42:24;;;;;;;5.37;3.30;;;;;;;6.33;47.55;100235.84;1706528;81;21063;-79
2022/04/19 04:44:52;;;;;;;6.90;4.40;;;;;;;6.35;47.62;100237.52;1714371;81;21517;-81
2022/04/19 04:50:05;;;;;;;7.03;5.50;;;;;;;6.42;47.87;100235.17;1701307;81;21170;-80
2022/04/19 04:52:32;;;;;;;6.50;3.67;;;;;;;6.44;47.83;100233.41;1737477;81;21048;-80
2022/04/19 04:54:59;;;;;;;6.27;3.17;;;;;;;6.46;47.95;100232.93;1722566;81;21502;-81
2022/04/19 04:57:28;;;;;;;5.87;2.90;;;;;;;6.44;47.88;100226.04;1705350;83;21190;-81
2022/04/19 04:59:55;;;;;;;8.10;5.30;;;;;;;6.41;47.94;100224.36;1691312;83;21760;-81
2022/04/19 05:02:23;;;;;;;53.93;28.23;;;;;;;6.42;48.02;100225.21;1683282;83;21093;-80
2022/04/19 05:04:51;;;;;;;31.53;16.97;;;;;;;6.43;48.06;100216.08;1705056;84;21066;-81
2022/04/19 05:07:19;;;;;;;121.73;81.40;;;;;;;6.44;47.85;100211.27;1705221;83;21545;-81
2022/04/19 05:09:47;;;;;;;44.73;27.80;;;;;;;6.41;47.68;100211.34;1705049;84;21038;-81
2022/04/19 05:12:15;;;;;;;92.67;41.77;;;;;;;6.41;47.74;100210.50;1705225;84;21034;-81
2022/04/19 05:14:42;;;;;;;77.27;34.33;;;;;;;6.42;47.74;100213.05;1706372;83;21186;-81
2022/04/19 05:17:10;;;;;;;54.50;22.67;;;;;;;6.43;48.02;100212.17;1703714;83;21030;-81
2022/04/19 05:19:38;;;;;;;49.47;17.93;;;;;;;6.46;47.91;100204.74;1700232;84;21010;-81
2022/04/19 05:22:05;;;;;;;32.87;13.43;;;;;;;6.50;47.94;100215.93;1700530;84;21046;-81
2022/04/19 05:24:32;;;;;;;39.80;14.50;;;;;;;6.55;47.98;100220.59;1700675;84;21002;-81
2022/04/19 05:27:00;;;;;;;13.97;5.63;;;;;;;6.60;48.38;100227.41;1678321;84;21136;-81
2022/04/19 05:29:27;;;;;;;28.03;10.20;;;;;;;6.66;48.45;100231.61;1700589;84;21007;-81
2022/04/19 05:31:54;;;;;;;25.47;10.37;;;;;;;6.71;48.44;100227.16;1700508;84;21042;-81
2022/04/19 05:34:22;;;;;;;32.60;11.30;;;;;;;6.78;48.32;100214.83;1700882;84;21089;-81
2022/04/19 05:36:49;;;;;;;28.37;10.10;;;;;;;6.81;48.30;100216.89;1685462;84;21528;-80
2022/04/19 05:39:16;;;;;;;5.47;3.60;;;;;;;6.84;48.42;100219.42;1682570;84;21093;-81
2022/04/19 05:41:43;;;;;;;47.57;17.97;;;;;;;6.86;48.22;100225.91;1684861;83;21084;-80
2022/04/19 05:44:11;;;;;;;11.13;4.73;;;;;;;6.83;48.03;100245.53;1712623;82;21013;-81
2022/04/19 05:46:39;;;;;;;25.10;9.73;;;;;;;6.77;48.29;100260.86;1693669;83;21157;-81
2022/04/19 05:49:06;;;;;;;7.70;3.90;;;;;;;6.72;48.25;100256.66;1670869;84;21139;-80
2022/04/19 05:51:35;;;;;;;39.17;13.77;;;;;;;6.63;48.18;100248.16;1652539;84;22134;-80
2022/04/19 05:54:03;;;;;;;6.70;3.23;;;;;;;6.55;48.23;100260.50;1678295;84;21122;-80
2022/04/19 05:56:33;;;;;;;6.70;4.20;;;;;;;6.45;48.12;100261.14;1690116;83;21117;-80
2022/04/19 05:59:01;;;;;;;7.17;3.40;;;;;;;6.34;48.10;100259.22;1679729;84;21178;-80
2022/04/19 06:04:51;;;;;;;13.33;6.03;;;;;;;6.24;48.41;100259.03;1740405;81;21025;-80
2022/04/19 06:06:44;;;;;;;7.03;3.80;;;;;;;6.21;48.80;100270.81;1765570;81;20961;-81
2022/04/19 06:09:12;;;;;;;19.10;6.57;;;;;;;6.21;48.97;100265.16;1685074;84;21510;-78
2022/04/19 06:11:39;;;;;;;25.87;10.17;;;;;;;6.23;48.95;100269.00;1660572;83;21078;-80
2022/04/19 06:14:08;;;;;;;13.40;5.63;;;;;;;6.21;49.09;100270.36;1718323;81;21545;-80
2022/04/19 06:16:35;;;;;;;12.43;4.83;;;;;;;6.21;49.08;100261.70;1746061;81;21266;-81
2022/04/19 06:19:02;;;;;;;48.97;13.47;;;;;;;6.19;49.17;100260.87;1737909;80;21067;-79
2022/04/19 06:21:30;;;;;;;20.30;7.27;;;;;;;6.21;49.36;100264.30;1743636;80;21083;-80
2022/04/19 06:23:58;;;;;;;36.43;13.33;;;;;;;6.22;49.24;100263.40;1734586;81;21005;-78
2022/04/19 06:26:26;;;;;;;8.50;4.40;;;;;;;6.23;49.34;100260.75;1736140;81;21386;-80
2022/04/19 06:28:55;;;;;;;5.33;3.10;;;;;;;6.29;49.37;100262.81;1734889;81;22052;-79
2022/04/19 06:31:33;;;;;;;6.47;3.70;;;;;;;6.30;49.34;100259.34;1747819;81;21659;-79
2022/04/19 06:34:05;;;;;;;7.83;4.57;;;;;;;6.28;49.71;100255.91;1737586;81;21044;-78
2022/04/19 06:36:34;;;;;;;8.17;4.00;;;;;;;6.18;50.70;100257.83;1732314;81;21029;-78
2022/04/19 06:39:02;;;;;;;8.23;3.83;;;;;;;6.09;51.48;100263.23;1736408;81;21059;-78
2022/04/19 06:41:28;;;;;;;5.87;3.57;;;;;;;6.00;51.85;100268.20;1700525;82;21090;-79
2022/04/19 06:43:58;;;;;;;5.30;2.97;;;;;;;5.85;52.25;100271.94;1726392;82;21506;-80
2022/04/19 06:46:26;;;;;;;;;;;;;;;5.74;52.80;100276.05;1738544;81;21056;-78
2022/04/19 06:48:55;;;;;;;6.93;3.77;;;;;;;5.69;54.05;100277.02;1739313;82;20177;-78
2022/04/19 06:51:23;;;;;;;28.87;12.13;;;;;;;5.60;54.60;100266.35;1746192;81;21035;-77
2022/04/19 06:53:50;;;;;;;16.27;8.63;;;;;;;5.55;54.87;100265.58;1727850;81;21569;-77
2022/04/19 06:56:22;;;;;;;11.50;6.63;;;;;;;5.52;55.76;100258.69;1714135;82;21090;-77
2022/04/19 06:58:49;;;;;;;7.17;4.70;;;;;;;5.58;56.34;100256.41;1727548;81;21043;-77
2022/04/19 07:01:16;;;;;;;8.30;4.63;;;;;;;5.67;57.37;100262.73;1736007;80;21450;-77
2022/04/19 07:03:45;;;;;;;5.30;3.40;;;;;;;5.84;57.86;100260.25;1729977;81;21043;-76
2022/04/19 07:06:29;;;;;;;5.67;3.20;;;;;;;6.04;57.88;100252.92;1751645;81;21946;-81
2022/04/19 07:08:58;;;;;;;5.80;3.43;;;;;;;6.13;57.85;100257.09;1745763;80;21186;-84
2022/04/19 07:11:25;;;;;;;5.80;3.30;;;;;;;6.23;58.05;100252.94;1739143;80;21099;-75
2022/04/19 07:14:04;;;;;;;5.00;3.57;;;;;;;6.32;58.05;100249.31;1729572;82;21023;-76
2022/04/19 07:16:51;;;;;;;5.20;3.40;;;;;;;6.40;58.04;100250.00;1735231;82;21206;-76
2022/04/19 07:19:19;;;;;;;4.97;3.08;;;;;;;6.48;58.34;100253.28;1742811;82;22249;-75
2022/04/19 07:27:22;;;;;;;4.10;2.90;;;;;;;6.69;58.64;100270.15;1745948;80;21347;-81
2022/04/19 07:29:49;;;;;;;5.12;3.98;;;;;;;6.70;58.52;100261.88;1744379;81;21266;-76
2022/04/19 07:32:17;;;;;;;6.57;4.37;;;;;;;6.73;59.12;100260.95;1733456;80;21138;-74
2022/04/19 07:34:52;;;;;;;6.23;3.77;;;;;;;6.80;59.15;100263.84;1741147;81;20935;-74
2022/04/19 07:37:19;;;;;;;5.73;4.33;;;;;;;6.86;58.98;100259.78;1727995;81;21003;-74
2022/04/19 07:39:46;;;;;;;7.10;3.80;;;;;;;6.87;59.24;100257.58;1742422;81;21052;-74
2022/04/19 07:42:13;;;;;;;6.80;4.17;;;;;;;6.98;59.34;100262.53;1732617;82;21561;-73
2022/04/19 07:44:44;;;;;;;6.70;4.20;;;;;;;7.09;59.44;100260.06;1726866;82;21129;-74
2022/04/19 07:47:09;;;;;;;11.70;6.57;;;;;;;7.20;59.75;100258.48;1729029;82;21016;-74
2022/04/19 07:49:36;;;;;;;6.37;3.80;;;;;;;7.31;59.71;100254.31;1743402;82;21545;-74
2022/04/19 07:52:04;;;;;;;7.43;4.90;;;;;;;7.38;59.67;100254.57;1740777;81;21025;-75
2022/04/19 07:54:31;;;;;;;5.47;4.13;;;;;;;7.40;59.64;100250.60;1722885;82;21031;-73
2022/04/19 07:56:58;;;;;;;5.17;3.60;;;;;;;7.49;59.97;100256.45;1732272;82;21161;-75
2022/04/19 07:59:25;;;;;;;4.83;3.57;;;;;;;7.50;59.47;100254.69;1741209;81;21057;-76
2022/04/19 08:01:53;;;;;;;4.60;3.50;;;;;;;7.50;59.88;100255.53;1732514;82;21029;-77
2022/04/19 08:04:20;;;;;;;4.03;2.83;;;;;;;7.51;59.73;100247.26;1737167;82;21008;-76
2022/04/19 08:06:47;;;;;;;6.90;3.20;;;;;;;7.49;59.35;100248.62;1731507;82;21024;-75
2022/04/19 08:09:14;;;;;;;5.03;2.90;;;;;;;7.66;60.45;100252.07;1730996;81;21984;-74
2022/04/19 08:11:42;;;;;;;4.30;2.60;;;;;;;7.91;60.38;100254.00;1721611;81;21501;-75
2022/04/19 08:14:09;;;;;;;4.97;3.37;;;;;;;8.11;60.54;100255.58;1729368;82;21005;-74
2022/04/19 08:16:36;;;;;;;4.30;2.80;;;;;;;8.28;60.33;100261.61;1745939;80;21012;-74
2022/04/19 08:19:03;;;;;;;6.23;3.03;;;;;;;8.41;60.09;100255.61;1738738;81;21181;-75
2022/04/19 08:21:30;;;;;;;4.40;2.77;;;;;;;8.56;59.89;100260.80;1732219;82;21510;-74
2022/04/19 08:23:58;;;;;;;4.90;3.50;;;;;;;8.55;59.35;100261.26;1734452;82;21009;-75
2022/04/19 08:26:25;;;;;;;5.70;3.30;;;;;;;8.56;59.29;100266.88;1725318;82;21067;-75
2022/04/19 08:28:52;;;;;;;4.90;3.10;;;;;;;8.56;59.19;100269.48;1738477;81;21055;-74
2022/04/19 08:31:19;;;;;;;4.27;3.13;;;;;;;8.62;59.38;100268.02;1742156;81;21021;-74
2022/04/19 08:33:47;;;;;;;4.30;3.50;;;;;;;8.70;59.17;100267.75;1745975;81;21129;-75
2022/04/19 08:36:16;;;;;;;4.70;3.27;;;;;;;8.70;58.84;100266.02;1732739;81;21496;-75
2022/04/19 08:38:43;;;;;;;27.83;13.43;;;;;;;8.65;59.03;100268.38;1733125;82;21051;-74
2022/04/19 08:41:10;;;;;;;12.87;7.90;;;;;;;8.55;59.07;100273.02;1736140;82;21020;-74
2022/04/19 08:43:39;;;;;;;14.17;8.57;;;;;;;8.44;59.25;100271.18;1744048;82;21022;-79
2022/04/19 08:46:07;;;;;;;10.57;5.93;;;;;;;8.34;59.59;100277.54;1731473;81;21113;-76
2022/04/19 08:48:38;;;;;;;8.10;4.60;;;;;;;8.26;59.80;100288.23;1735229;82;21116;-74
2022/04/19 08:51:04;;;;;;;6.53;4.67;;;;;;;8.18;60.06;100287.60;1670028;85;21032;-77
2022/04/19 08:59:06;;;;;;;4.53;3.33;;;;;;;7.83;61.01;100282.91;1717207;83;21970;-74
2022/04/19 09:01:38;;;;;;;4.87;3.70;;;;;;;7.85;61.44;100292.88;1709367;83;21573;-75
2022/04/19 09:04:06;;;;;;;7.30;4.00;;;;;;;7.94;62.20;100298.28;1690800;83;21026;-75
2022/04/19 09:06:57;;;;;;;5.67;3.83;;;;;;;8.10;62.64;100298.71;1695650;83;20996;-74
2022/04/19 09:09:26;;;;;;;5.70;3.97;;;;;;;8.42;63.36;100295.17;1703065;83;21036;-76
2022/04/19 09:12:06;;;;;;;7.30;5.57;;;;;;;8.83;63.71;100296.52;1695830;84;21083;-75
2022/04/19 09:14:33;;;;;;;5.27;4.40;;;;;;;9.08;63.55;100297.05;1710291;83;21011;-79
2022/04/19 09:17:10;;;;;;;5.73;4.83;;;;;;;9.19;62.65;100291.02;1699570;83;21586;-79
2022/04/19 09:19:38;;;;;;;4.63;3.53;;;;;;;9.13;62.01;100292.08;1705752;83;21568;-76
2022/04/19 09:22:09;;;;;;;5.17;3.80;;;;;;;9.06;61.67;100299.73;1708328;82;21552;-77
2022/04/19 09:24:37;;;;;;;5.33;3.57;;;;;;;9.04;61.65;100303.30;1704472;83;21131;-75
2022/04/19 09:27:04;;;;;;;4.80;3.60;;;;;;;9.02;61.57;100303.33;1713456;83;21019;-76
2022/04/19 09:29:34;;;;;;;4.23;3.50;;;;;;;8.98;61.44;100299.55;1724353;82;21103;-81
2022/04/19 09:32:07;;;;;;;4.37;3.90;;;;;;;8.94;61.63;100302.72;1729434;82;21577;-81
2022/04/19 09:34:36;;;;;;;5.13;3.90;;;;;;;9.03;61.60;100308.11;1723496;81;21035;-80
2022/04/19 09:37:11;;;;;;;6.57;4.90;;;;;;;9.03;61.45;100307.65;1746429;82;21289;-75
2022/04/19 09:39:41;;;;;;;6.87;5.03;;;;;;;9.01;61.22;100304.25;1745120;81;20993;-78
2022/04/19 09:42:18;;;;;;;10.43;6.30;;;;;;;8.93;61.08;100297.95;1743315;81;21008;-74
2022/04/19 09:44:46;;;;;;;10.17;6.90;;;;;;;8.87;61.26;100299.92;1744902;81;21048;-75
2022/04/19 09:47:14;;;;;;;8.93;5.70;;;;;;;8.96;61.49;100294.84;1720669;82;21039;-78
2022/04/19 09:49:51;;;;;;;11.43;6.50;;;;;;;9.21;61.82;100287.91;1740513;82;21095;-72
2022/04/19 09:52:30;;;;;;;7.63;5.90;;;;;;;9.22;61.26;100289.60;1728582;82;21000;-78
2022/04/19 09:55:11;;;;;;;11.00;8.10;;;;;;;9.19;61.44;100294.94;1745857;80;21027;-72
2022/04/19 09:57:41;;;;;;;5.87;4.20;;;;;;;9.17;61.31;100295.43;1742432;82;21498;-72
2022/04/19 10:00:13;;;;;;;;;;;;;;;9.13;61.24;100296.00;1738644;81;21008;-73
2022/04/19 10:08:24;;;;;;;6.20;4.37;;;;;;;9.19;60.51;100301.47;1746404;82;21286;-80
2022/04/19 10:10:56;;;;;;;6.60;4.50;;;;;;;9.36;59.97;100308.30;1741096;81;21087;-79
2022/04/19 10:13:25;;;;;;;7.10;4.43;;;;;;;9.55;59.67;100302.45;1730565;82;21126;-76
2022/04/19 10:15:52;;;;;;;7.67;4.37;;;;;;;9.85;59.39;100299.69;1734558;81;21137;-73
2022/04/19 10:18:19;;;;;;;8.10;4.90;;;;;;;10.47;59.35;100296.09;1729585;82;21043;-80
2022/04/19 10:20:58;;;;;;;8.40;5.90;;;;;;;11.12;59.61;100304.88;1726476;82;21052;-78
2022/04/19 10:23:37;;;;;;;7.10;5.17;;;;;;;11.48;58.78;100291.15;1738419;82;21031;-78
2022/04/19 10:26:23;;;;;;;5.73;4.93;;;;;;;11.46;57.61;100294.75;1748575;81;21036;-73
2022/04/19 10:28:54;;;;;;;5.77;4.20;;;;;;;11.18;56.34;100299.84;1728273;82;21111;-75
2022/04/19 10:31:34;;;;;;;4.37;3.33;;;;;;;10.85;55.83;100304.22;1742175;82;21020;-74
2022/04/19 10:34:03;;;;;;;3.90;3.33;;;;;;;10.61;55.42;100310.41;1744268;80;21036;-75
2022/04/19 10:36:40;;;;;;;4.57;3.40;;;;;;;10.37;55.06;100306.98;1739142;82;21005;-74
2022/04/19 10:39:18;;;;;;;5.63;4.13;;;;;;;10.13;55.08;100310.86;1745781;81;21028;-75
2022/04/19 10:41:56;;;;;;;6.07;4.63;;;;;;;10.04;55.25;100315.98;1735923;82;21922;-74
2022/04/19 10:44:38;;;;;;;5.47;4.00;;;;;;;10.08;55.61;100317.17;1742091;81;21581;-76
2022/04/19 10:47:17;;;;;;;5.17;4.50;;;;;;;10.55;55.86;100308.03;1747975;80;21028;-73
2022/04/19 10:50:06;;;;;;;5.95;4.42;;;;;;;11.18;55.91;100312.11;1743510;80;20981;-72
2022/04/19 10:52:44;;;;;;;5.35;3.80;;;;;;;11.82;55.28;100309.38;1733878;80;21017;-72
2022/04/19 10:55:26;;;;;;;4.65;3.30;;;;;;;12.44;54.79;100286.48;1728427;82;21836;-73
2022/04/19 10:58:17;;;;;;;4.00;3.37;;;;;;;12.67;53.29;100299.88;1742981;82;21064;-73
2022/04/19 11:00:47;;;;;;;4.50;3.70;;;;;;;12.51;51.96;100303.69;1736037;82;21070;-74
2022/04/19 11:03:33;;;;;;;4.87;3.95;;;;;;;12.33;51.24;100304.05;1726607;82;21597;-76
2022/04/19 11:06:09;;;;;;;4.62;4.15;;;;;;;12.23;50.75;100315.92;1728022;81;21040;-74
2022/04/19 11:08:37;;;;;;;6.60;4.50;;;;;;;11.97;51.05;100315.76;1730952;80;21503;-77
2022/04/19 11:11:21;;;;;;;5.45;4.60;;;;;;;11.75;51.52;100325.00;1728437;80;21497;-75
2022/04/19 11:14:17;;;;;;;7.00;4.70;;;;;;;11.52;51.58;100336.02;1739471;81;20991;-76
2022/04/19 11:16:50;;;;;;;8.18;5.35;;;;;;;11.23;51.70;100335.93;1704961;83;21049;-74
2022/04/19 11:19:21;;;;;;;7.80;5.03;;;;;;;11.05;51.93;100342.75;1688625;83;21110;-76
2022/04/19 11:21:58;;;;;;;9.57;5.33;;;;;;;11.02;52.47;100349.90;1692513;82;21195;-73
2022/04/19 11:25:01;;;;;;;8.83;6.17;;;;;;;11.21;52.73;100338.22;1690810;82;21150;-77
2022/04/19 11:27:56;;;;;;;7.58;6.30;;;;;;;11.61;52.86;100350.53;1713103;82;21019;-73
2022/04/19 11:30:25;;;;;;;7.27;5.77;;;;;;;11.47;52.49;100345.00;1681602;82;21075;-73
2022/04/19 11:32:56;;;;;;;8.00;5.43;;;;;;;11.21;52.40;100351.33;1696677;83;21021;-73
2022/04/19 11:35:26;;;;;;;7.80;5.87;;;;;;;10.99;52.54;100361.36;1724240;81;21961;-74
2022/04/19 11:37:53;;;;;;;7.53;5.80;;;;;;;10.91;52.75;100359.50;1716085;82;21024;-73
2022/04/19 11:48:48;;;;;;;7.93;5.53;;;;;;;11.09;53.15;100357.94;1705529;82;21129;-73
2022/04/19 11:51:20;;;;;;;8.03;5.67;;;;;;;11.11;52.52;100356.96;1714819;82;21086;-73
2022/04/19 11:53:49;;;;;;;9.05;6.78;;;;;;;11.22;52.93;100352.56;1738042;80;21036;-73
2022/04/19 11:56:16;;;;;;;7.60;5.33;;;;;;;11.34;52.66;100353.40;1744717;81;21019;-73
2022/04/19 11:58:52;;;;;;;7.15;5.87;;;;;;;11.44;52.52;100359.11;1720792;81;21034;-73
2022/04/19 12:01:18;;;;;;;5.80;5.13;;;;;;;11.50;52.36;100353.62;1726385;81;21361;-73
2022/04/19 12:03:45;;;;;;;8.33;5.45;;;;;;;11.52;52.10;100366.67;1724095;81;21090;-73
2022/04/19 12:06:16;;;;;;;8.80;5.25;;;;;;;11.51;52.00;100365.82;1719373;81;20967;-73
2022/04/19 12:08:53;;;;;;;5.93;5.00;;;;;;;11.56;51.76;100368.27;1716442;81;21027;-73
2022/04/19 12:11:25;;;;;;;7.73;5.40;;;;;;;11.47;51.46;100375.19;1716864;81;21078;-73
2022/04/19 12:13:52;;;;;;;8.33;5.40;;;;;;;11.28;51.28;100375.95;1715483;81;21115;-73
2022/04/19 12:16:37;;;;;;;8.00;5.80;;;;;;;11.14;50.97;100374.31;1720104;81;21035;-73
2022/04/19 12:19:12;;;;;;;5.50;4.90;;;;;;;10.96;51.29;100373.29;1728831;81;21010;-74
2022/04/19 12:21:45;;;;;;;8.23;5.53;;;;;;;10.87;51.45;100368.41;1723436;82;21018;-75